createdAt,value
2018-06-14T00:00:33.699Z,99.90
2018-06-14T00:03:02.138Z,99.90
2018-06-14T00:05:30.665Z,99.90
2018-06-14T00:07:59.128Z,99.90
2018-06-14T00:10:27.510Z,99.90
2018-06-14T00:12:55.995Z,99.90
2018-06-14T00:15:24.283Z,99.90
2018-06-14T00:17:52.657Z,99.90
2018-06-14T00:20:21.329Z,99.90
2018-06-14T00:22:49.790Z,99.90
2018-06-14T00:25:18.189Z,99.90
2018-06-14T00:27:46.551Z,99.90
2018-06-14T00:30:14.912Z,99.90
2018-06-14T00:32:43.232Z,99.90
2018-06-14T00:35:11.693Z,99.90
2018-06-14T00:37:40.120Z,99.90
2018-06-14T00:40:08.557Z,99.90
2018-06-14T00:42:36.908Z,99.90
2018-06-14T00:45:05.227Z,99.90
2018-06-14T00:47:33.724Z,99.90
2018-06-14T00:50:02.171Z,99.90
2018-06-14T00:52:30.532Z,99.90
2018-06-14T00:54:58.912Z,99.90
2018-06-14T00:57:28.535Z,99.90
2018-06-14T00:59:57.238Z,99.90
2018-06-14T01:02:26.103Z,99.90
2018-06-14T01:04:54.439Z,99.90
2018-06-14T01:07:22.895Z,99.90
2018-06-14T01:09:51.260Z,99.90
2018-06-14T01:12:19.595Z,99.90
2018-06-14T01:14:47.955Z,99.90
2018-06-14T01:17:16.300Z,99.90
2018-06-14T01:19:44.620Z,99.90
2018-06-14T01:22:13.040Z,99.90
2018-06-14T01:24:41.460Z,99.90
2018-06-14T01:27:11.015Z,99.90
2018-06-14T01:29:39.694Z,99.90
2018-06-14T01:32:08.123Z,99.90
2018-06-14T01:34:36.448Z,99.90
2018-06-14T01:37:05.347Z,99.90
2018-06-14T01:39:34.203Z,99.90
2018-06-14T01:42:02.684Z,99.90
2018-06-14T01:44:31.123Z,99.90
2018-06-14T01:46:59.610Z,99.90
2018-06-14T01:49:28.032Z,99.90
2018-06-14T01:51:56.387Z,99.90
2018-06-14T01:54:24.759Z,99.90
2018-06-14T01:56:53.562Z,99.90
2018-06-14T01:59:21.912Z,99.90
2018-06-14T02:01:51.359Z,99.90
2018-06-14T02:04:19.733Z,99.90
2018-06-14T02:06:48.077Z,99.90
2018-06-14T02:09:16.383Z,99.90
2018-06-14T02:11:44.721Z,99.90
2018-06-14T02:14:13.158Z,99.90
2018-06-14T02:16:41.507Z,99.90
2018-06-14T02:19:09.818Z,99.90
2018-06-14T02:21:38.259Z,99.90
2018-06-14T02:24:07.190Z,99.90
2018-06-14T02:26:35.629Z,99.90
2018-06-14T02:29:04.040Z,99.90
2018-06-14T02:31:32.431Z,99.90
2018-06-14T02:34:00.910Z,99.90
2018-06-14T02:36:29.273Z,99.90
2018-06-14T02:38:57.620Z,99.90
2018-06-14T02:41:25.928Z,99.90
2018-06-14T02:43:54.435Z,99.90
2018-06-14T02:46:22.782Z,99.90
2018-06-14T02:48:51.088Z,99.90
2018-06-14T02:51:19.431Z,99.90
2018-06-14T02:53:47.812Z,99.90
2018-06-14T02:56:16.971Z,99.90
2018-06-14T02:58:46.037Z,99.90
2018-06-14T03:01:14.420Z,99.90
2018-06-14T03:03:42.822Z,99.90
2018-06-14T03:08:39.073Z,99.90
2018-06-14T03:11:07.425Z,99.90
2018-06-14T03:13:35.795Z,99.90
2018-06-14T03:16:04.564Z,99.90
2018-06-14T03:18:32.903Z,99.90
2018-06-14T03:21:03.420Z,99.90
2018-06-14T03:23:32.023Z,99.90
2018-06-14T03:26:00.418Z,99.90
2018-06-14T03:28:28.770Z,99.90
2018-06-14T03:30:57.115Z,99.90
2018-06-14T03:33:25.486Z,99.90
2018-06-14T03:35:53.863Z,99.90
2018-06-14T03:38:22.428Z,99.90
2018-06-14T03:40:51.794Z,99.90
2018-06-14T03:43:20.204Z,99.90
2018-06-14T03:45:48.546Z,99.90
2018-06-14T03:48:17.016Z,99.90
2018-06-14T03:50:45.383Z,99.90
2018-06-14T03:53:13.850Z,99.90
2018-06-14T03:55:42.659Z,99.90
2018-06-14T03:58:12.491Z,99.90
2018-06-14T04:00:40.890Z,99.90
2018-06-14T04:03:09.319Z,99.90
2018-06-14T04:05:37.703Z,99.90
2018-06-14T04:08:06.111Z,99.90
2018-06-14T04:10:34.470Z,99.90
2018-06-14T04:13:02.820Z,99.90
2018-06-14T04:15:31.245Z,99.90
2018-06-14T04:18:03.699Z,99.90
2018-06-14T04:20:33.704Z,99.90
2018-06-14T04:23:03.014Z,99.90
2018-06-14T04:28:01.190Z,99.90
2018-06-14T04:32:59.778Z,99.90
2018-06-14T04:35:29.280Z,99.90
2018-06-14T04:37:58.581Z,99.90
2018-06-14T04:40:27.871Z,99.90
2018-06-14T04:42:57.648Z,99.90
2018-06-14T04:45:26.967Z,99.90
2018-06-14T04:47:56.280Z,99.90
2018-06-14T04:50:25.737Z,99.90
2018-06-14T04:52:55.057Z,99.90
2018-06-14T04:55:24.436Z,99.90
2018-06-14T04:57:53.860Z,99.90
2018-06-14T05:00:23.296Z,99.90
2018-06-14T05:02:52.613Z,99.90
2018-06-14T05:07:51.093Z,99.90
2018-06-14T05:10:20.617Z,99.80
2018-06-14T05:12:49.905Z,99.60
2018-06-14T05:15:19.189Z,98.90
2018-06-14T05:17:48.472Z,98.30
2018-06-14T05:25:15.812Z,96.90
2018-06-14T05:27:45.164Z,96.30
2018-06-14T05:30:15.580Z,95.40
2018-06-14T05:32:44.889Z,95.40
2018-06-14T05:35:14.155Z,96.20
2018-06-14T05:37:44.616Z,97.30
2018-06-14T05:40:13.856Z,98.70
2018-06-14T05:42:43.214Z,99.90
2018-06-14T05:45:12.432Z,99.90
2018-06-14T05:47:41.728Z,99.90
2018-06-14T05:50:11.043Z,99.90
2018-06-14T05:52:40.262Z,99.90
2018-06-14T05:55:09.897Z,99.90
2018-06-14T05:57:39.263Z,99.90
2018-06-14T06:00:13.408Z,99.90
2018-06-14T06:02:42.732Z,99.90
2018-06-14T06:05:12.126Z,99.90
2018-06-14T06:07:41.768Z,99.90
2018-06-14T06:10:11.049Z,99.90
2018-06-14T06:12:40.706Z,99.90
2018-06-14T06:15:10.748Z,99.90
2018-06-14T06:17:41.303Z,99.90
2018-06-14T06:20:14.534Z,99.90
2018-06-14T06:22:44.028Z,99.90
2018-06-14T06:25:13.375Z,99.90
2018-06-14T06:27:42.704Z,99.90
2018-06-14T06:30:12.017Z,99.90
2018-06-14T06:32:41.284Z,99.90
2018-06-14T06:35:10.560Z,99.90
2018-06-14T06:37:40.012Z,99.90
2018-06-14T06:40:09.572Z,99.90
2018-06-14T06:42:38.990Z,99.90
2018-06-14T06:45:08.458Z,99.90
2018-06-14T06:47:37.783Z,99.90
2018-06-14T06:50:07.093Z,99.90
2018-06-14T06:52:36.644Z,99.90
2018-06-14T06:55:06.062Z,99.90
2018-06-14T06:57:35.393Z,99.90
2018-06-14T07:00:05.783Z,99.90
2018-06-14T07:02:36.120Z,99.90
2018-06-14T07:05:05.462Z,99.90
2018-06-14T07:07:34.792Z,99.90
2018-06-14T07:10:04.608Z,99.90
2018-06-14T07:12:33.915Z,99.90
2018-06-14T07:15:03.520Z,99.90
2018-06-14T07:17:32.751Z,99.90
2018-06-14T07:20:02.189Z,99.90
2018-06-14T07:22:31.420Z,99.90
2018-06-14T07:25:00.793Z,99.90
2018-06-14T07:27:30.333Z,99.90
2018-06-14T07:29:59.691Z,99.90
2018-06-14T07:32:29.519Z,99.90
2018-06-14T07:34:58.844Z,99.90
2018-06-14T07:37:28.068Z,99.90
2018-06-14T07:42:27.238Z,99.90
2018-06-14T07:44:56.552Z,99.90
2018-06-14T07:47:25.848Z,99.90
2018-06-14T07:49:55.166Z,99.90
2018-06-14T07:52:24.595Z,99.90
2018-06-14T07:54:53.900Z,99.90
2018-06-14T07:57:23.623Z,99.90
2018-06-14T07:59:53.755Z,99.90
2018-06-14T08:02:23.976Z,99.90
2018-06-14T08:04:53.274Z,99.90
2018-06-14T08:07:23.135Z,99.90
2018-06-14T08:09:52.520Z,99.90
2018-06-14T08:12:21.823Z,99.90
2018-06-14T08:14:51.104Z,99.90
2018-06-14T08:17:20.991Z,99.90
2018-06-14T08:19:50.323Z,99.90
2018-06-14T08:22:19.576Z,99.90
2018-06-14T08:24:49.615Z,99.90
2018-06-14T08:27:18.980Z,99.90
2018-06-14T08:29:49.311Z,99.90
2018-06-14T08:32:18.560Z,99.90
2018-06-14T08:34:47.845Z,99.90
2018-06-14T08:37:17.577Z,99.90
2018-06-14T08:39:47.433Z,99.90
2018-06-14T08:42:16.763Z,99.90
2018-06-14T08:44:46.107Z,99.90
2018-06-14T08:47:15.368Z,99.90
2018-06-14T08:49:44.714Z,99.90
2018-06-14T08:52:14.264Z,99.90
2018-06-14T08:54:43.688Z,99.90
2018-06-14T08:57:13.587Z,99.90
2018-06-14T08:59:42.889Z,99.90
2018-06-14T09:02:12.165Z,99.90
2018-06-14T09:04:41.583Z,99.90
2018-06-14T09:07:10.890Z,99.70
2018-06-14T09:09:40.250Z,99.30
2018-06-14T09:12:09.516Z,99.50
2018-06-14T09:14:38.999Z,99.70
2018-06-14T09:17:08.361Z,99.90
2018-06-14T09:19:37.683Z,99.80
2018-06-14T09:22:07.201Z,99.90
2018-06-14T09:24:36.465Z,99.40
2018-06-14T09:27:05.815Z,99.90
2018-06-14T09:29:35.238Z,99.60
2018-06-14T09:32:04.617Z,99.90
2018-06-14T09:34:33.937Z,99.90
2018-06-14T09:37:03.230Z,99.80
2018-06-14T09:39:33.080Z,99.40
2018-06-14T09:42:03.391Z,99.90
2018-06-14T09:44:32.609Z,99.70
2018-06-14T09:47:01.880Z,99.70
2018-06-14T09:52:00.710Z,99.70
2018-06-14T09:54:30.041Z,99.90
2018-06-14T09:57:00.078Z,99.90
2018-06-14T09:59:29.337Z,99.90
2018-06-14T10:01:58.693Z,99.90
2018-06-14T10:04:27.996Z,99.90
2018-06-14T10:06:57.282Z,99.60
2018-06-14T10:09:26.564Z,99.40
2018-06-14T10:11:55.932Z,99.80
2018-06-14T10:14:26.470Z,99.70
2018-06-14T10:16:55.946Z,99.20
2018-06-14T10:26:13.674Z,99.30
2018-06-14T10:28:42.945Z,99.00
2018-06-14T10:31:12.335Z,99.20
2018-06-14T10:33:42.333Z,99.50
2018-06-14T10:36:11.798Z,99.00
2018-06-14T10:38:41.833Z,98.80
2018-06-14T10:41:11.095Z,98.70
2018-06-14T10:43:40.418Z,98.50
2018-06-14T10:46:09.779Z,98.60
2018-06-14T10:51:07.919Z,99.30
2018-06-14T10:53:37.229Z,99.10
2018-06-14T10:56:06.471Z,99.30
2018-06-14T10:58:35.812Z,98.80
2018-06-14T11:01:05.064Z,98.60
2018-06-14T11:03:34.749Z,99.10
2018-06-14T11:06:04.173Z,99.00
2018-06-14T11:08:34.336Z,98.50
2018-06-14T11:11:03.603Z,98.20
2018-06-14T11:13:32.951Z,98.20
2018-06-14T11:16:02.358Z,97.70
2018-06-14T11:18:31.833Z,98.10
2018-06-14T11:21:01.682Z,97.60
2018-06-14T11:23:31.125Z,97.40
2018-06-14T11:26:00.424Z,97.90
2018-06-14T11:28:29.713Z,98.30
2018-06-14T11:30:59.711Z,97.80
2018-06-14T11:33:30.864Z,97.60
2018-06-14T11:36:00.146Z,98.00
2018-06-14T11:38:30.349Z,97.90
2018-06-14T11:40:59.607Z,97.30
2018-06-14T11:43:28.874Z,97.20
2018-06-14T11:45:58.663Z,97.40
2018-06-14T11:48:27.929Z,98.20
2018-06-14T11:50:57.219Z,99.70
2018-06-14T11:53:26.611Z,98.30
2018-06-14T11:55:55.974Z,98.00
2018-06-14T11:58:26.540Z,97.40
2018-06-14T12:00:56.699Z,97.10
2018-06-14T12:03:26.089Z,97.00
2018-06-14T12:05:54.672Z,96.90
2018-06-14T12:08:23.774Z,96.70
2018-06-14T12:10:52.384Z,96.70
2018-06-14T12:13:20.919Z,96.40
2018-06-14T12:15:49.450Z,96.30
2018-06-14T12:18:18.935Z,95.70
2018-06-14T12:27:38.440Z,95.70
2018-06-14T12:30:08.651Z,95.70
2018-06-14T12:32:38.975Z,95.60
2018-06-14T12:35:08.191Z,96.00
2018-06-14T12:37:37.452Z,96.00
2018-06-14T12:40:06.060Z,96.10
2018-06-14T12:42:34.492Z,95.60
2018-06-14T12:45:03.157Z,96.10
2018-06-14T12:47:32.428Z,95.80
2018-06-14T12:50:01.008Z,95.70
2018-06-14T12:52:30.256Z,95.80
2018-06-14T12:54:58.922Z,96.70
2018-06-14T12:57:28.171Z,96.60
2018-06-14T12:59:57.237Z,96.20
2018-06-14T13:02:26.268Z,95.60
2018-06-14T13:04:56.036Z,95.90
2018-06-14T13:07:24.645Z,94.90
2018-06-14T13:09:53.531Z,95.50
2018-06-14T13:12:22.036Z,95.60
2018-06-14T13:14:50.613Z,95.50
2018-06-14T13:17:19.049Z,95.80
2018-06-14T13:19:47.932Z,95.40
2018-06-14T13:22:16.391Z,94.70
2018-06-14T13:24:44.941Z,94.70
2018-06-14T13:27:14.348Z,95.00
2018-06-14T13:29:43.375Z,95.90
2018-06-14T13:32:11.880Z,95.00
2018-06-14T13:34:40.904Z,95.20
2018-06-14T13:37:09.384Z,95.60
2018-06-14T13:39:37.936Z,95.30
2018-06-14T13:42:06.340Z,95.90
2018-06-14T13:44:36.775Z,95.40
2018-06-14T13:47:05.379Z,95.70
2018-06-14T13:49:33.865Z,96.60
2018-06-14T13:52:02.531Z,95.00
2018-06-14T13:54:30.928Z,95.00
2018-06-14T13:56:59.430Z,95.40
2018-06-14T13:59:27.813Z,95.70
2018-06-14T14:01:56.147Z,95.70
2018-06-14T14:04:24.536Z,95.90
2018-06-14T14:06:59.249Z,96.10
2018-06-14T14:09:27.695Z,96.30
2018-06-14T14:11:56.084Z,97.20
2018-06-14T14:14:24.606Z,96.50
2018-06-14T14:16:52.965Z,96.50
2018-06-14T14:19:22.040Z,96.00
2018-06-14T14:21:50.451Z,96.40
2018-06-14T14:24:18.953Z,96.20
2018-06-14T14:26:47.999Z,95.70
2018-06-14T14:29:17.199Z,96.10
2018-06-14T14:31:45.883Z,95.50
2018-06-14T14:34:15.141Z,96.30
2018-06-14T14:36:44.010Z,95.70
2018-06-14T14:39:13.133Z,95.40
2018-06-14T14:41:42.025Z,95.50
2018-06-14T14:44:11.154Z,95.30
2018-06-14T14:46:40.934Z,95.90
2018-06-14T14:49:10.152Z,96.00
2018-06-14T14:51:38.537Z,96.10
2018-06-14T14:54:07.214Z,96.10
2018-06-14T14:56:35.678Z,96.10
2018-06-14T14:59:04.233Z,96.10
2018-06-14T15:01:33.673Z,96.10
2018-06-14T15:04:02.845Z,96.00
2018-06-14T15:06:33.301Z,95.70
2018-06-14T15:09:01.768Z,96.10
2018-06-14T15:11:30.349Z,96.50
2018-06-14T15:13:58.732Z,96.40
2018-06-14T15:16:28.037Z,96.50
2018-06-14T15:18:56.622Z,96.40
2018-06-14T15:21:25.263Z,95.80
2018-06-14T15:23:53.805Z,95.70
2018-06-14T15:26:22.155Z,95.90
2018-06-14T15:28:50.534Z,95.60
2018-06-14T15:31:19.048Z,95.90
2018-06-14T15:33:48.204Z,96.10
2018-06-14T15:36:16.922Z,96.00
2018-06-14T15:38:45.920Z,96.00
2018-06-14T15:41:14.379Z,96.00
2018-06-14T15:43:42.870Z,96.00
2018-06-14T15:46:11.384Z,95.70
2018-06-14T15:48:39.930Z,96.00
2018-06-14T15:51:08.464Z,96.40
2018-06-14T15:53:38.029Z,96.60
2018-06-14T15:56:39.825Z,96.50
2018-06-14T15:59:13.891Z,96.60
2018-06-14T16:01:42.607Z,96.90
2018-06-14T16:04:11.412Z,96.90
2018-06-14T16:06:39.851Z,96.70
2018-06-14T16:11:36.516Z,97.40
2018-06-14T16:14:04.979Z,97.40
2018-06-14T16:16:33.416Z,97.30
2018-06-14T16:19:02.406Z,97.30
2018-06-14T16:21:31.127Z,97.40
2018-06-14T16:24:00.374Z,97.40
2018-06-14T16:26:28.997Z,97.70
2018-06-14T16:28:58.017Z,98.50
2018-06-14T16:31:26.611Z,99.30
2018-06-14T16:33:55.242Z,99.90
2018-06-14T16:36:24.364Z,99.90
2018-06-14T16:38:52.932Z,99.90
2018-06-14T16:41:21.670Z,99.90
2018-06-14T16:43:50.323Z,99.90
2018-06-14T16:46:18.891Z,99.90
2018-06-14T16:48:48.311Z,99.90
2018-06-14T16:51:16.894Z,99.90
2018-06-14T16:53:45.305Z,99.90
2018-06-14T16:56:13.753Z,99.90
2018-06-14T16:58:42.222Z,99.90
2018-06-14T17:01:10.700Z,99.90
2018-06-14T17:03:39.124Z,99.90
2018-06-14T17:06:07.694Z,99.90
2018-06-14T17:08:36.096Z,99.90
2018-06-14T17:11:04.617Z,99.90
2018-06-14T17:13:34.448Z,99.90
2018-06-14T17:16:03.946Z,99.90
2018-06-14T17:18:32.478Z,99.90
2018-06-14T17:21:01.547Z,99.90
2018-06-14T17:23:30.705Z,99.90
2018-06-14T17:25:59.098Z,99.90
2018-06-14T17:28:27.532Z,99.90
2018-06-14T17:30:56.052Z,99.90
2018-06-14T17:33:25.235Z,99.90
2018-06-14T17:35:54.552Z,99.90
2018-06-14T17:38:23.802Z,99.90
2018-06-14T17:40:52.391Z,99.90
2018-06-14T17:43:21.007Z,99.90
2018-06-14T17:45:52.696Z,99.90
2018-06-14T17:48:22.557Z,99.90
2018-06-14T17:50:51.862Z,99.90
2018-06-14T17:53:20.353Z,99.90
2018-06-14T17:55:48.951Z,99.90
2018-06-14T17:58:17.967Z,99.90
2018-06-14T18:00:47.294Z,99.90
2018-06-14T18:03:16.612Z,99.90
2018-06-14T18:05:45.164Z,99.90
2018-06-14T18:08:13.675Z,99.90
2018-06-14T18:10:42.241Z,99.90
2018-06-14T18:13:10.839Z,99.90
2018-06-14T18:18:07.348Z,99.90
2018-06-14T18:20:36.112Z,99.90
2018-06-14T18:23:04.895Z,99.90
2018-06-14T18:25:34.457Z,99.90
2018-06-14T18:28:03.140Z,99.90
2018-06-14T18:30:32.437Z,99.90
2018-06-14T18:33:01.563Z,99.90
2018-06-14T18:35:30.172Z,99.90
2018-06-14T18:37:58.765Z,99.90
2018-06-14T18:40:27.889Z,99.90
2018-06-14T18:42:56.534Z,99.90
2018-06-14T18:45:25.236Z,99.90
2018-06-14T18:47:54.254Z,99.90
2018-06-14T18:50:22.775Z,99.90
2018-06-14T18:52:51.787Z,99.90
2018-06-14T18:55:22.847Z,99.90
2018-06-14T18:57:52.312Z,99.90
2018-06-14T19:00:21.532Z,99.90
2018-06-14T19:02:50.036Z,99.90
2018-06-14T19:05:18.892Z,99.90
2018-06-14T19:07:48.833Z,99.90
2018-06-14T19:10:17.665Z,99.90
2018-06-14T19:12:46.896Z,99.90
2018-06-14T19:15:15.458Z,99.90
2018-06-14T19:17:45.102Z,99.90
2018-06-14T19:20:13.521Z,99.90
2018-06-14T19:22:42.166Z,99.90
2018-06-14T19:25:11.157Z,99.90
2018-06-14T19:27:39.731Z,99.90
2018-06-14T19:30:08.559Z,99.90
2018-06-14T19:35:05.505Z,99.90
2018-06-14T19:37:34.996Z,99.90
2018-06-14T19:40:04.245Z,99.90
2018-06-14T19:42:32.744Z,99.90
2018-06-14T19:45:01.267Z,99.90
2018-06-14T19:47:30.520Z,99.90
2018-06-14T19:49:58.999Z,99.90
2018-06-14T19:52:27.426Z,99.90
2018-06-14T19:54:56.439Z,99.90
2018-06-14T19:57:25.201Z,99.90
2018-06-14T19:59:53.985Z,99.90
2018-06-14T20:02:22.724Z,99.90
2018-06-14T20:04:51.221Z,99.90
2018-06-14T20:07:20.693Z,99.90
2018-06-14T20:09:49.384Z,99.90
2018-06-14T20:12:17.952Z,99.90
2018-06-14T20:14:47.035Z,99.90
2018-06-14T20:17:15.459Z,99.90
2018-06-14T20:19:44.551Z,99.90
2018-06-14T20:22:13.743Z,99.90
2018-06-14T20:24:42.469Z,99.90
2018-06-14T20:27:11.183Z,99.90
2018-06-14T20:29:39.815Z,99.90
2018-06-14T20:32:08.375Z,99.90
2018-06-14T20:34:37.042Z,99.90
2018-06-14T20:37:05.839Z,99.90
2018-06-14T20:39:34.365Z,99.90
2018-06-14T20:42:03.711Z,99.90
2018-06-14T20:44:32.305Z,99.90
2018-06-14T20:47:00.797Z,99.90
2018-06-14T20:49:29.598Z,99.90
2018-06-14T20:51:58.707Z,99.90
2018-06-14T20:54:28.511Z,99.90
2018-06-14T20:56:57.959Z,99.90
2018-06-14T20:59:26.384Z,99.90
2018-06-14T21:01:54.953Z,99.90
2018-06-14T21:04:23.757Z,99.90
2018-06-14T21:06:52.164Z,99.90
2018-06-14T21:09:20.640Z,99.90
2018-06-14T21:11:49.664Z,99.90
2018-06-14T21:14:18.804Z,99.90
2018-06-14T21:16:47.268Z,99.90
2018-06-14T21:19:15.639Z,99.90
2018-06-14T21:21:44.040Z,99.90
2018-06-14T21:24:12.488Z,99.90
2018-06-14T21:26:40.868Z,99.90
2018-06-14T21:29:09.396Z,99.90
2018-06-14T21:31:37.845Z,99.90
2018-06-14T21:34:06.244Z,99.90
2018-06-14T21:36:34.704Z,99.90
2018-06-14T21:39:04.035Z,99.90
2018-06-14T21:41:32.698Z,99.90
2018-06-14T21:44:01.078Z,99.90
2018-06-14T21:46:29.458Z,99.90
2018-06-14T21:48:57.936Z,99.90
2018-06-14T21:51:26.351Z,99.90
2018-06-14T21:53:55.408Z,99.90
2018-06-14T21:56:23.818Z,99.90
2018-06-14T21:58:52.168Z,99.90
2018-06-14T22:01:20.685Z,99.90
2018-06-14T22:03:58.090Z,99.90
2018-06-14T22:06:26.522Z,99.90
2018-06-14T22:08:55.009Z,99.90
2018-06-14T22:11:23.531Z,99.90
2018-06-14T22:13:51.871Z,99.90
2018-06-14T22:16:20.325Z,99.90
2018-06-14T22:18:48.719Z,99.90
2018-06-14T22:21:17.165Z,99.90
2018-06-14T22:23:45.994Z,99.90
2018-06-14T22:26:15.182Z,99.90
2018-06-14T22:28:43.680Z,99.90
2018-06-14T22:31:12.071Z,99.90
2018-06-14T22:33:46.187Z,99.90
2018-06-14T22:36:14.598Z,99.90
2018-06-14T22:38:43.053Z,99.90
2018-06-14T22:41:11.648Z,99.90
2018-06-14T22:43:40.136Z,99.90
2018-06-14T22:46:08.629Z,99.90
2018-06-14T22:48:37.634Z,99.90
2018-06-14T22:51:11.802Z,99.90
2018-06-14T22:53:40.171Z,99.90
2018-06-14T22:56:08.600Z,99.90
2018-06-14T22:58:37.015Z,99.90
2018-06-14T23:03:33.259Z,99.90
2018-06-14T23:06:02.506Z,99.90
2018-06-14T23:08:30.974Z,99.90
2018-06-14T23:11:05.429Z,99.90
2018-06-14T23:13:33.911Z,99.90
2018-06-14T23:16:02.248Z,99.90
2018-06-14T23:18:30.663Z,99.90
2018-06-14T23:20:59.112Z,99.90
2018-06-14T23:23:27.519Z,99.90
2018-06-14T23:25:55.969Z,99.90
2018-06-14T23:28:24.386Z,99.90
2018-06-14T23:30:52.765Z,99.90
2018-06-14T23:33:22.056Z,99.90
2018-06-14T23:35:50.410Z,99.90
2018-06-14T23:38:18.837Z,99.90
2018-06-14T23:40:47.320Z,99.90
2018-06-14T23:43:16.240Z,99.90
2018-06-14T23:45:45.074Z,99.90
2018-06-14T23:48:13.448Z,99.90
2018-06-14T23:50:41.847Z,99.90
2018-06-14T23:53:10.259Z,99.90
2018-06-14T23:55:38.700Z,99.90
2018-06-14T23:58:07.106Z,99.90
